createdAt,value
2018-09-25T00:02:09.505Z,9.65
2018-09-25T00:04:42.380Z,9.68
2018-09-25T00:07:15.338Z,9.68
2018-09-25T00:09:48.294Z,9.65
2018-09-25T00:12:21.233Z,9.64
2018-09-25T00:14:54.033Z,9.58
2018-09-25T00:17:26.826Z,9.67
2018-09-25T00:19:59.793Z,9.71
2018-09-25T00:22:32.574Z,9.61
2018-09-25T00:25:05.421Z,9.41
2018-09-25T00:27:38.258Z,9.27
2018-09-25T00:30:11.593Z,9.32
2018-09-25T00:32:44.606Z,9.35
2018-09-25T00:35:17.416Z,9.26
2018-09-25T00:37:50.196Z,9.09
2018-09-25T00:40:23.069Z,8.85
2018-09-25T00:42:55.949Z,8.86
2018-09-25T00:45:28.912Z,8.99
2018-09-25T00:48:01.653Z,9.02
2018-09-25T00:50:34.585Z,9.00
2018-09-25T00:53:07.341Z,9.09
2018-09-25T00:55:40.092Z,9.12
2018-09-25T00:58:12.825Z,9.11
2018-09-25T01:00:45.573Z,9.04
2018-09-25T01:03:18.377Z,8.97
2018-09-25T01:05:51.116Z,8.98
2018-09-25T01:08:23.953Z,8.96
2018-09-25T01:10:56.789Z,8.82
2018-09-25T01:13:29.634Z,8.82
2018-09-25T01:16:02.402Z,8.62
2018-09-25T01:18:35.178Z,8.33
2018-09-25T01:21:08.136Z,8.14
2018-09-25T01:23:40.864Z,8.06
2018-09-25T01:26:13.629Z,7.99
2018-09-25T01:28:46.668Z,8.05
2018-09-25T01:31:19.553Z,8.24
2018-09-25T01:33:52.482Z,8.36
2018-09-25T01:36:25.819Z,8.52
2018-09-25T01:38:58.629Z,8.64
2018-09-25T01:41:31.806Z,8.74
2018-09-25T01:44:04.953Z,8.62
2018-09-25T01:46:37.928Z,8.45
2018-09-25T01:49:10.747Z,8.24
2018-09-25T01:51:43.777Z,7.98
2018-09-25T01:54:16.545Z,7.92
2018-09-25T01:56:49.462Z,7.92
2018-09-25T01:59:22.224Z,8.08
2018-09-25T02:01:55.433Z,8.05
2018-09-25T02:04:28.299Z,8.20
2018-09-25T02:07:01.122Z,8.20
2018-09-25T02:09:33.847Z,8.14
2018-09-25T02:12:06.750Z,8.12
2018-09-25T02:14:39.414Z,8.02
2018-09-25T02:17:12.326Z,7.99
2018-09-25T02:19:45.150Z,7.56
2018-09-25T02:22:17.997Z,7.47
2018-09-25T02:24:50.819Z,7.59
2018-09-25T02:27:23.750Z,7.68
2018-09-25T02:29:56.408Z,7.73
2018-09-25T02:32:29.370Z,7.80
2018-09-25T02:35:02.229Z,7.79
2018-09-25T02:37:34.980Z,7.75
2018-09-25T02:40:07.776Z,7.70
2018-09-25T02:42:40.750Z,7.74
2018-09-25T02:45:13.495Z,7.64
2018-09-25T02:47:46.310Z,7.61
2018-09-25T02:50:19.114Z,7.65
2018-09-25T02:52:52.062Z,7.52
2018-09-25T02:55:25.009Z,7.50
2018-09-25T02:57:57.704Z,7.62
2018-09-25T03:00:30.540Z,7.37
2018-09-25T03:03:03.204Z,7.16
2018-09-25T03:05:35.995Z,7.30
2018-09-25T03:08:08.793Z,7.40
2018-09-25T03:10:41.605Z,7.45
2018-09-25T03:13:14.424Z,7.57
2018-09-25T03:15:47.271Z,7.54
2018-09-25T03:18:20.239Z,7.34
2018-09-25T03:20:53.721Z,7.36
2018-09-25T03:23:26.584Z,7.39
2018-09-25T03:25:59.308Z,7.33
2018-09-25T03:28:32.093Z,7.30
2018-09-25T03:31:04.797Z,7.19
2018-09-25T03:33:37.607Z,7.16
2018-09-25T03:36:10.555Z,7.17
2018-09-25T03:38:43.474Z,7.20
2018-09-25T03:41:16.117Z,7.07
2018-09-25T03:43:48.985Z,7.43
2018-09-25T03:46:21.914Z,7.39
2018-09-25T03:48:54.695Z,7.36
2018-09-25T03:51:27.510Z,7.18
2018-09-25T03:54:00.466Z,7.11
2018-09-25T03:56:33.158Z,7.18
2018-09-25T03:59:05.969Z,7.17
2018-09-25T04:01:38.665Z,7.10
2018-09-25T04:04:11.600Z,7.17
2018-09-25T04:06:44.540Z,7.12
2018-09-25T04:09:17.281Z,7.07
2018-09-25T04:11:50.068Z,6.89
2018-09-25T04:14:23.035Z,6.99
2018-09-25T04:16:56.020Z,7.06
2018-09-25T04:19:28.770Z,6.86
2018-09-25T04:22:01.669Z,6.92
2018-09-25T04:24:34.632Z,7.00
2018-09-25T04:27:07.506Z,7.03
2018-09-25T04:29:40.309Z,7.00
2018-09-25T04:32:13.085Z,6.95
2018-09-25T04:34:45.831Z,6.92
2018-09-25T04:37:18.747Z,6.97
2018-09-25T04:39:51.776Z,6.87
2018-09-25T04:42:24.610Z,6.89
2018-09-25T04:44:57.600Z,6.88
2018-09-25T04:47:30.550Z,6.80
2018-09-25T04:50:03.424Z,6.66
2018-09-25T04:52:36.156Z,6.70
2018-09-25T04:55:08.913Z,6.75
2018-09-25T04:57:41.819Z,6.68
2018-09-25T05:00:14.557Z,6.64
2018-09-25T05:02:47.348Z,6.63
2018-09-25T05:05:20.223Z,6.61
2018-09-25T05:07:53.110Z,6.66
2018-09-25T05:10:25.998Z,6.82
2018-09-25T05:12:58.863Z,6.79
2018-09-25T05:15:31.817Z,6.80
2018-09-25T05:18:04.768Z,6.78
2018-09-25T05:20:37.507Z,6.68
2018-09-25T05:23:10.371Z,6.56
2018-09-25T05:25:43.171Z,6.65
2018-09-25T05:28:15.957Z,6.65
2018-09-25T05:30:48.843Z,6.69
2018-09-25T05:33:21.760Z,6.72
2018-09-25T05:35:54.766Z,6.84
2018-09-25T05:38:27.457Z,6.81
2018-09-25T05:41:00.494Z,6.87
2018-09-25T05:43:33.466Z,6.83
2018-09-25T05:46:06.750Z,6.86
2018-09-25T05:48:39.686Z,6.75
2018-09-25T05:51:12.434Z,6.82
2018-09-25T05:53:45.341Z,6.78
2018-09-25T05:56:18.306Z,6.69
2018-09-25T05:58:51.421Z,6.59
2018-09-25T06:01:24.231Z,6.56
2018-09-25T06:03:56.975Z,6.53
2018-09-25T06:06:29.859Z,6.59
2018-09-25T06:09:02.796Z,6.70
2018-09-25T06:11:35.916Z,6.72
2018-09-25T06:14:08.854Z,6.84
2018-09-25T06:16:41.630Z,6.89
2018-09-25T06:19:14.375Z,6.95
2018-09-25T06:21:47.343Z,6.93
2018-09-25T06:24:20.313Z,7.11
2018-09-25T06:26:53.305Z,7.12
2018-09-25T06:29:26.310Z,7.20
2018-09-25T06:31:59.185Z,7.29
2018-09-25T06:34:32.212Z,7.31
2018-09-25T06:37:06.331Z,7.29
2018-09-25T06:39:39.226Z,7.32
2018-09-25T06:42:12.013Z,7.46
2018-09-25T06:44:45.121Z,7.60
2018-09-25T06:47:18.045Z,7.62
2018-09-25T06:49:50.883Z,7.65
2018-09-25T06:52:23.887Z,7.73
2018-09-25T06:54:56.859Z,7.86
2018-09-25T06:57:29.794Z,8.05
2018-09-25T07:00:02.609Z,8.20
2018-09-25T07:02:35.476Z,8.27
2018-09-25T07:05:08.215Z,8.42
2018-09-25T07:07:41.290Z,8.48
2018-09-25T07:10:14.266Z,8.64
2018-09-25T07:12:48.349Z,8.77
2018-09-25T07:15:21.133Z,8.86
2018-09-25T07:17:54.310Z,9.03
2018-09-25T07:20:27.039Z,9.10
2018-09-25T07:22:59.907Z,9.23
2018-09-25T07:25:32.891Z,9.38
2018-09-25T07:28:05.794Z,9.49
2018-09-25T07:30:38.710Z,9.62
2018-09-25T07:33:11.588Z,9.69
2018-09-25T07:35:44.513Z,9.78
2018-09-25T07:38:17.397Z,9.89
2018-09-25T07:40:50.205Z,10.00
2018-09-25T07:43:23.243Z,10.16
2018-09-25T07:45:56.001Z,10.30
2018-09-25T07:48:29.545Z,10.41
2018-09-25T07:51:02.586Z,10.51
2018-09-25T07:53:35.628Z,10.69
2018-09-25T07:56:08.727Z,10.89
2018-09-25T07:58:41.584Z,11.06
2018-09-25T08:01:14.449Z,11.15
2018-09-25T08:03:47.297Z,11.18
2018-09-25T08:06:20.001Z,11.28
2018-09-25T08:08:52.719Z,11.38
2018-09-25T08:11:25.506Z,11.45
2018-09-25T08:13:58.449Z,11.59
2018-09-25T08:16:31.333Z,11.51
2018-09-25T08:19:04.330Z,11.61
2018-09-25T08:21:37.164Z,11.72
2018-09-25T08:24:10.121Z,11.78
2018-09-25T08:26:42.981Z,11.97
2018-09-25T08:29:15.815Z,12.11
2018-09-25T08:31:48.647Z,12.29
2018-09-25T08:34:21.681Z,12.35
2018-09-25T08:36:54.472Z,12.45
2018-09-25T08:39:27.526Z,12.55
2018-09-25T08:42:00.551Z,12.66
2018-09-25T08:44:33.674Z,12.78
2018-09-25T08:47:06.452Z,12.85
2018-09-25T08:49:40.138Z,12.90
2018-09-25T08:52:13.028Z,13.02
2018-09-25T08:54:46.007Z,13.25
2018-09-25T08:57:18.897Z,13.24
2018-09-25T08:59:51.771Z,13.28
2018-09-25T09:02:24.655Z,13.44
2018-09-25T09:04:57.932Z,13.59
2018-09-25T09:07:30.906Z,13.69
2018-09-25T09:10:03.952Z,13.78
2018-09-25T09:12:36.933Z,13.96
2018-09-25T09:15:10.537Z,14.00
2018-09-25T09:17:43.485Z,14.10
2018-09-25T09:20:16.538Z,14.08
2018-09-25T09:22:49.366Z,14.16
2018-09-25T09:25:22.302Z,14.31
2018-09-25T09:27:55.264Z,14.31
2018-09-25T09:30:28.214Z,14.38
2018-09-25T09:33:01.117Z,14.50
2018-09-25T09:35:34.302Z,14.49
2018-09-25T09:38:07.155Z,14.54
2018-09-25T09:40:40.002Z,14.64
2018-09-25T09:43:13.988Z,14.61
2018-09-25T09:45:48.814Z,14.64
2018-09-25T09:48:21.811Z,14.66
2018-09-25T09:50:54.773Z,14.68
2018-09-25T09:53:27.920Z,14.69
2018-09-25T09:56:00.898Z,14.67
2018-09-25T09:58:33.737Z,14.83
2018-09-25T10:01:06.716Z,15.00
2018-09-25T10:03:40.028Z,14.78
2018-09-25T10:06:13.242Z,14.92
2018-09-25T10:08:46.085Z,14.92
2018-09-25T10:11:19.212Z,14.99
2018-09-25T10:13:52.062Z,15.01
2018-09-25T10:16:25.013Z,14.99
2018-09-25T10:18:58.031Z,15.19
2018-09-25T10:21:30.879Z,15.20
2018-09-25T10:24:03.856Z,15.20
2018-09-25T10:26:36.797Z,15.30
2018-09-25T10:29:09.673Z,15.45
2018-09-25T10:31:42.615Z,15.52
2018-09-25T10:34:15.584Z,15.61
2018-09-25T10:36:48.584Z,15.71
2018-09-25T10:39:21.321Z,15.72
2018-09-25T10:41:54.231Z,15.80
2018-09-25T10:44:27.095Z,15.96
2018-09-25T10:47:00.157Z,15.92
2018-09-25T10:49:33.077Z,16.01
2018-09-25T10:52:06.563Z,16.03
2018-09-25T10:54:39.249Z,15.92
2018-09-25T10:57:12.105Z,16.05
2018-09-25T10:59:46.021Z,15.97
2018-09-25T11:02:19.002Z,16.05
2018-09-25T11:04:51.935Z,16.11
2018-09-25T11:07:25.366Z,16.20
2018-09-25T11:09:58.435Z,16.36
2018-09-25T11:12:31.422Z,16.45
2018-09-25T11:15:04.350Z,16.49
2018-09-25T11:17:37.296Z,16.43
2018-09-25T11:20:10.415Z,16.48
2018-09-25T11:22:43.293Z,16.60
2018-09-25T11:25:16.186Z,16.61
2018-09-25T11:27:49.159Z,16.66
2018-09-25T11:30:22.175Z,16.75
2018-09-25T11:32:55.182Z,16.63
2018-09-25T11:35:28.011Z,16.73
2018-09-25T11:38:01.073Z,16.96
2018-09-25T11:40:34.152Z,16.95
2018-09-25T11:43:07.059Z,16.92
2018-09-25T11:45:40.074Z,17.11
2018-09-25T11:48:12.949Z,16.91
2018-09-25T11:50:45.997Z,16.82
2018-09-25T11:53:19.302Z,16.96
2018-09-25T11:55:52.072Z,16.94
2018-09-25T11:58:25.024Z,16.65
2018-09-25T12:00:57.739Z,16.80
2018-09-25T12:03:30.855Z,17.01
2018-09-25T12:06:03.848Z,17.29
2018-09-25T12:08:36.710Z,16.90
2018-09-25T12:11:09.521Z,17.14
2018-09-25T12:13:42.385Z,17.27
2018-09-25T12:16:15.188Z,17.37
2018-09-25T12:18:48.061Z,17.33
2018-09-25T12:21:20.809Z,17.64
2018-09-25T12:23:53.574Z,17.91
2018-09-25T12:26:26.525Z,17.92
2018-09-25T12:28:59.532Z,17.88
2018-09-25T12:31:32.399Z,17.58
2018-09-25T12:34:05.182Z,17.77
2018-09-25T12:36:38.083Z,17.23
2018-09-25T12:39:12.539Z,17.70
2018-09-25T12:41:45.670Z,17.92
2018-09-25T12:44:18.515Z,17.75
2018-09-25T12:46:51.472Z,18.11
2018-09-25T12:49:24.611Z,18.52
2018-09-25T12:51:57.947Z,18.29
2018-09-25T12:54:30.908Z,18.14
2018-09-25T12:57:03.683Z,18.33
2018-09-25T12:59:36.598Z,18.63
2018-09-25T13:02:09.357Z,18.44
2018-09-25T13:04:42.361Z,18.44
2018-09-25T13:07:15.935Z,18.75
2018-09-25T13:09:48.949Z,19.10
2018-09-25T13:12:21.830Z,19.24
2018-09-25T13:14:54.600Z,19.28
2018-09-25T13:17:27.362Z,19.33
2018-09-25T13:20:00.434Z,19.51
2018-09-25T13:22:33.404Z,19.33
2018-09-25T13:25:06.457Z,19.54
2018-09-25T13:27:39.318Z,19.72
2018-09-25T13:30:12.147Z,19.92
2018-09-25T13:32:45.087Z,19.49
2018-09-25T13:35:18.201Z,18.62
2018-09-25T13:37:51.041Z,19.78
2018-09-25T13:40:24.019Z,19.66
2018-09-25T13:42:57.755Z,19.79
2018-09-25T13:45:30.620Z,19.81
2018-09-25T13:48:03.980Z,19.81
2018-09-25T13:50:37.121Z,19.93
2018-09-25T13:53:10.182Z,20.26
2018-09-25T13:55:43.297Z,20.51
2018-09-25T13:58:16.294Z,20.61
2018-09-25T14:00:49.139Z,20.31
2018-09-25T14:03:22.108Z,19.88
2018-09-25T14:05:54.845Z,19.74
2018-09-25T14:08:27.626Z,19.90
2018-09-25T14:11:00.653Z,20.06
2018-09-25T14:13:33.476Z,20.32
2018-09-25T14:16:06.535Z,20.06
2018-09-25T14:18:39.397Z,20.59
2018-09-25T14:21:12.153Z,20.80
2018-09-25T14:23:45.013Z,20.72
2018-09-25T14:26:17.998Z,20.28
2018-09-25T14:28:50.883Z,20.09
2018-09-25T14:31:23.809Z,20.43
2018-09-25T14:33:56.755Z,20.60
2018-09-25T14:36:29.499Z,20.82
2018-09-25T14:39:02.652Z,20.67
2018-09-25T14:41:35.654Z,21.10
2018-09-25T14:44:08.518Z,21.62
2018-09-25T14:46:41.532Z,22.03
2018-09-25T14:49:14.548Z,21.41
2018-09-25T14:51:47.862Z,21.50
2018-09-25T14:54:20.661Z,21.55
2018-09-25T14:56:53.556Z,21.55
2018-09-25T14:59:26.474Z,21.40
2018-09-25T15:01:59.347Z,21.61
2018-09-25T15:04:32.115Z,21.50
2018-09-25T15:07:05.632Z,21.87
2018-09-25T15:09:38.408Z,22.25
2018-09-25T15:12:11.400Z,22.12
2018-09-25T15:14:44.743Z,22.26
2018-09-25T15:17:17.487Z,22.10
2018-09-25T15:19:50.378Z,21.93
2018-09-25T15:22:23.672Z,21.89
2018-09-25T15:24:56.615Z,21.39
2018-09-25T15:27:30.341Z,20.72
2018-09-25T15:30:03.180Z,20.30
2018-09-25T15:32:36.107Z,19.87
2018-09-25T15:35:09.212Z,19.28
2018-09-25T15:37:42.086Z,19.31
2018-09-25T15:40:15.257Z,19.12
2018-09-25T15:42:48.761Z,19.06
2018-09-25T15:45:22.213Z,19.05
2018-09-25T15:47:55.374Z,18.97
2018-09-25T15:50:28.455Z,18.62
2018-09-25T15:53:08.061Z,18.96
2018-09-25T15:55:41.029Z,19.02
2018-09-25T15:58:13.889Z,18.90
2018-09-25T16:00:46.675Z,18.87
2018-09-25T16:03:19.667Z,18.64
2018-09-25T16:05:52.461Z,18.61
2018-09-25T16:08:25.185Z,18.48
2018-09-25T16:10:58.130Z,18.49
2018-09-25T16:13:31.051Z,18.34
2018-09-25T16:16:04.255Z,18.26
2018-09-25T16:18:37.286Z,18.16
2018-09-25T16:21:10.231Z,18.17
2018-09-25T16:23:44.862Z,18.18
2018-09-25T16:26:17.769Z,18.17
2018-09-25T16:28:50.618Z,18.12
2018-09-25T16:31:23.702Z,18.18
2018-09-25T16:33:56.451Z,18.14
2018-09-25T16:36:29.373Z,18.03
2018-09-25T16:39:02.423Z,17.91
2018-09-25T16:41:35.306Z,17.82
2018-09-25T16:44:08.205Z,17.79
2018-09-25T16:46:41.245Z,17.70
2018-09-25T16:49:15.164Z,17.62
2018-09-25T16:51:48.370Z,17.66
2018-09-25T16:54:21.483Z,17.66
2018-09-25T16:56:54.587Z,17.66
2018-09-25T16:59:27.492Z,17.52
2018-09-25T17:02:00.319Z,17.51
2018-09-25T17:04:33.192Z,17.51
2018-09-25T17:07:05.969Z,17.44
2018-09-25T17:09:38.945Z,17.35
2018-09-25T17:12:12.202Z,17.24
2018-09-25T17:14:45.076Z,17.10
2018-09-25T17:17:17.987Z,17.11
2018-09-25T17:19:50.850Z,17.01
2018-09-25T17:22:23.697Z,17.01
2018-09-25T17:24:56.477Z,16.90
2018-09-25T17:27:29.513Z,16.77
2018-09-25T17:30:02.523Z,16.71
2018-09-25T17:32:35.681Z,16.72
2018-09-25T17:35:08.770Z,16.65
2018-09-25T17:37:41.754Z,16.72
2018-09-25T17:40:14.753Z,16.64
2018-09-25T17:42:47.810Z,16.57
2018-09-25T17:45:20.632Z,16.38
2018-09-25T17:47:53.480Z,16.28
2018-09-25T17:50:26.302Z,16.14
2018-09-25T17:52:59.291Z,16.07
2018-09-25T17:55:32.349Z,15.96
2018-09-25T17:58:05.362Z,15.91
2018-09-25T18:00:38.211Z,15.96
2018-09-25T18:03:11.862Z,16.01
2018-09-25T18:05:51.762Z,15.99
2018-09-25T18:08:24.502Z,15.94
2018-09-25T18:10:57.417Z,15.70
2018-09-25T18:13:30.230Z,15.58
2018-09-25T18:16:03.098Z,15.48
2018-09-25T18:18:36.055Z,15.39
2018-09-25T18:21:08.941Z,15.31
2018-09-25T18:23:41.856Z,15.27
2018-09-25T18:26:15.071Z,15.25
2018-09-25T18:28:47.972Z,15.24
2018-09-25T18:31:20.959Z,15.23
2018-09-25T18:33:54.114Z,15.14
2018-09-25T18:36:27.002Z,15.03
2018-09-25T18:38:59.912Z,14.90
2018-09-25T18:41:32.863Z,14.93
2018-09-25T18:44:05.787Z,14.83
2018-09-25T18:46:38.732Z,14.76
2018-09-25T18:49:11.795Z,14.67
2018-09-25T18:51:44.802Z,14.48
2018-09-25T18:54:17.630Z,14.39
2018-09-25T18:56:50.638Z,14.24
2018-09-25T18:59:23.485Z,14.13
2018-09-25T19:01:56.400Z,14.09
2018-09-25T19:04:29.755Z,13.97
2018-09-25T19:07:02.561Z,13.92
2018-09-25T19:09:35.491Z,13.04
2018-09-25T19:12:08.497Z,13.85
2018-09-25T19:14:41.597Z,13.80
2018-09-25T19:17:14.731Z,13.71
2018-09-25T19:19:47.843Z,13.55
2018-09-25T19:22:20.730Z,13.54
2018-09-25T19:24:53.649Z,13.45
2018-09-25T19:30:08.834Z,13.45
2018-09-25T19:32:41.721Z,13.22
2018-09-25T19:35:14.731Z,13.19
2018-09-25T19:37:47.500Z,13.16
2018-09-25T19:40:20.535Z,13.12
2018-09-25T19:42:53.553Z,13.08
2018-09-25T19:45:26.396Z,13.05
2018-09-25T19:47:59.350Z,12.97
2018-09-25T19:50:33.076Z,12.86
2018-09-25T19:53:06.173Z,12.87
2018-09-25T19:55:39.255Z,12.90
2018-09-25T19:58:12.419Z,12.79
2018-09-25T20:00:45.218Z,12.70
2018-09-25T20:03:18.082Z,12.64
2018-09-25T20:05:51.077Z,12.59
2018-09-25T20:08:23.909Z,12.38
2018-09-25T20:10:57.079Z,12.32
2018-09-25T20:13:30.035Z,12.32
2018-09-25T20:16:02.942Z,12.33
2018-09-25T20:18:35.867Z,12.40
2018-09-25T20:21:08.901Z,12.33
2018-09-25T20:23:41.875Z,12.46
2018-09-25T20:26:14.840Z,12.47
2018-09-25T20:28:47.754Z,12.37
2018-09-25T20:31:20.637Z,12.24
2018-09-25T20:33:53.407Z,11.96
2018-09-25T20:36:26.363Z,11.89
2018-09-25T20:38:59.205Z,11.87
2018-09-25T20:41:32.561Z,11.49
2018-09-25T20:44:05.388Z,11.34
2018-09-25T20:46:38.402Z,11.40
2018-09-25T20:49:11.757Z,11.39
2018-09-25T20:51:44.724Z,11.42
2018-09-25T20:54:17.589Z,11.40
2018-09-25T20:56:50.421Z,11.36
2018-09-25T20:59:23.766Z,11.35
2018-09-25T21:01:56.862Z,11.30
2018-09-25T21:04:29.868Z,11.22
2018-09-25T21:07:02.682Z,11.24
2018-09-25T21:09:35.701Z,9.74
2018-09-25T21:12:08.599Z,11.14
2018-09-25T21:14:42.438Z,11.03
2018-09-25T21:17:15.448Z,10.83
2018-09-25T21:19:48.399Z,10.80
2018-09-25T21:22:21.272Z,10.85
2018-09-25T21:24:54.163Z,10.88
2018-09-25T21:27:27.282Z,10.71
2018-09-25T21:30:00.312Z,10.75
2018-09-25T21:32:33.596Z,10.78
2018-09-25T21:35:06.581Z,10.73
2018-09-25T21:37:39.848Z,10.66
2018-09-25T21:40:12.920Z,10.61
2018-09-25T21:42:45.973Z,10.49
2018-09-25T21:45:18.994Z,10.39
2018-09-25T21:47:51.805Z,10.44
2018-09-25T21:50:24.748Z,10.22
2018-09-25T21:52:57.693Z,10.08
2018-09-25T21:55:30.525Z,9.34
2018-09-25T21:58:03.922Z,10.09
2018-09-25T22:00:37.104Z,10.08
2018-09-25T22:03:10.187Z,10.05
2018-09-25T22:05:42.922Z,10.04
2018-09-25T22:08:15.869Z,9.99
2018-09-25T22:10:48.909Z,9.94
2018-09-25T22:13:21.689Z,9.93
2018-09-25T22:15:54.516Z,9.89
2018-09-25T22:18:27.362Z,9.78
2018-09-25T22:21:00.413Z,9.70
2018-09-25T22:23:33.466Z,9.65
2018-09-25T22:26:06.483Z,9.61
2018-09-25T22:28:39.409Z,9.60
2018-09-25T22:31:12.375Z,9.63
2018-09-25T22:33:45.330Z,9.60
2018-09-25T22:36:18.266Z,9.57
2018-09-25T22:38:51.097Z,9.66
2018-09-25T22:41:23.937Z,9.48
2018-09-25T22:43:56.653Z,9.52
2018-09-25T22:46:29.565Z,9.55
2018-09-25T22:49:02.511Z,9.44
2018-09-25T22:51:35.318Z,9.36
2018-09-25T22:54:08.269Z,9.43
2018-09-25T22:56:41.101Z,9.41
2018-09-25T22:59:14.549Z,9.38
2018-09-25T23:01:47.506Z,9.34
2018-09-25T23:04:20.273Z,9.40
2018-09-25T23:06:53.240Z,9.33
2018-09-25T23:09:26.003Z,9.36
2018-09-25T23:11:59.095Z,9.42
2018-09-25T23:14:31.983Z,9.31
2018-09-25T23:17:04.841Z,9.38
2018-09-25T23:19:38.036Z,9.35
2018-09-25T23:22:10.915Z,9.18
2018-09-25T23:24:43.649Z,9.09
2018-09-25T23:27:16.378Z,9.05
2018-09-25T23:29:49.113Z,8.89
2018-09-25T23:32:21.997Z,8.90
2018-09-25T23:34:54.847Z,8.92
2018-09-25T23:37:27.800Z,8.88
2018-09-25T23:39:59.566Z,9.08
2018-09-25T23:42:35.373Z,9.14
2018-09-25T23:45:08.768Z,9.11
2018-09-25T23:47:44.250Z,8.92
2018-09-25T23:50:52.271Z,8.76
2018-09-25T23:53:27.195Z,8.73
2018-09-25T23:56:00.039Z,8.72
2018-09-25T23:58:32.684Z,8.83
